Clark Hill, Kentucky
Current Conditions -  °F | °C
As of 8:10 PM on Sunday 23 Nov 2014 (Local Time) from KSYM Reporting Station
Light Rain Light Rain  
Wind Chill: 55°   Ceiling: 6000
Heat Index: 55°   Visibility: 8mi
Dew Point: 52°   Wind: 10mph
Humidity: 88%   Direction: 110°ESE
Pressure: 29.5"   Gusts: 17mph
Location:  38.3543°N, 83.1837°W
Report Text: KSYM 240110Z AUTO 11009G15KT 080V140 8SM -RA FEW038 BKN060 OVC090 13/11 A2950 RMK AO2
Loading
Personal Weather Stations






























Interactive Weather Map New forecast layout! Learn more

10-Day Weather Forecast

Advertisements
Track Severe Weather on mobile